Terminal Aerodrome Forecast
Issued by NWS

Home | Current Version | Previous Version | Graphics & Text | Print | Product List | Glossary On
Versions: 1 2 3 4 5 6 7 8 9 10 11 12 13 14 15 16
596
FTUS43 KBIS 162044 AAA
TAFMOT
TAF AMD
KMOT 162044Z 1621/1718 33011KT 5SM -RA BKN012 OVC025
      TEMPO 1621/1624 2SM RA BKN007
     FM170000 35011KT 6SM -RA OVC010
     FM170400 29008KT P6SM VCSH OVC015
     FM170600 28009KT P6SM BKN015
     FM171100 27009KT P6SM BKN035=

USA.gov is the U.S. government's official web portal to all federal, state and local government web resources and services.